sensor_id;sensor_type;location;lat;lon;timestamp;temperature;humidity
50586;DHT22;36542;51.700;8.846;2023-04-28T00:00:29;8.00;96.90
50586;DHT22;36542;51.700;8.846;2023-04-28T00:02:54;8.00;97.00
50586;DHT22;36542;51.700;8.846;2023-04-28T00:05:20;8.00;97.30
50586;DHT22;36542;51.700;8.846;2023-04-28T00:07:47;8.00;97.70
50586;DHT22;36542;51.700;8.846;2023-04-28T00:10:13;8.00;97.30
50586;DHT22;36542;51.700;8.846;2023-04-28T00:12:38;8.00;97.50
50586;DHT22;36542;51.700;8.846;2023-04-28T00:15:04;7.90;97.60
50586;DHT22;36542;51.700;8.846;2023-04-28T00:17:29;8.00;97.80
50586;DHT22;36542;51.700;8.846;2023-04-28T00:19:55;8.00;97.80
50586;DHT22;36542;51.700;8.846;2023-04-28T00:22:20;8.00;97.80
50586;DHT22;36542;51.700;8.846;2023-04-28T00:24:46;8.00;98.00
50586;DHT22;36542;51.700;8.846;2023-04-28T00:27:11;8.00;98.10
50586;DHT22;36542;51.700;8.846;2023-04-28T00:29:37;8.00;98.10
50586;DHT22;36542;51.700;8.846;2023-04-28T00:32:02;8.00;98.40
50586;DHT22;36542;51.700;8.846;2023-04-28T00:34:31;8.00;98.40
50586;DHT22;36542;51.700;8.846;2023-04-28T00:36:57;7.90;98.60
50586;DHT22;36542;51.700;8.846;2023-04-28T00:39:23;8.00;98.70
50586;DHT22;36542;51.700;8.846;2023-04-28T00:41:49;8.00;98.80
50586;DHT22;36542;51.700;8.846;2023-04-28T00:44:15;8.00;98.80
50586;DHT22;36542;51.700;8.846;2023-04-28T00:46:41;8.00;99.00
50586;DHT22;36542;51.700;8.846;2023-04-28T00:49:06;7.90;99.20
50586;DHT22;36542;51.700;8.846;2023-04-28T00:51:32;7.90;99.40
50586;DHT22;36542;51.700;8.846;2023-04-28T00:53:58;7.90;99.70
50586;DHT22;36542;51.700;8.846;2023-04-28T00:56:24;7.90;99.80
50586;DHT22;36542;51.700;8.846;2023-04-28T00:58:52;7.90;99.90
50586;DHT22;36542;51.700;8.846;2023-04-28T01:01:18;7.90;99.90
50586;DHT22;36542;51.700;8.846;2023-04-28T01:03:44;7.90;99.90
50586;DHT22;36542;51.700;8.846;2023-04-28T01:06:09;7.90;99.90
50586;DHT22;36542;51.700;8.846;2023-04-28T01:08:36;7.80;99.90
50586;DHT22;36542;51.700;8.846;2023-04-28T01:11:02;7.80;99.90
50586;DHT22;36542;51.700;8.846;2023-04-28T01:13:27;7.80;99.90
50586;DHT22;36542;51.700;8.846;2023-04-28T01:15:54;7.80;99.90
50586;DHT22;36542;51.700;8.846;2023-04-28T01:18:20;7.80;99.90
50586;DHT22;36542;51.700;8.846;2023-04-28T01:20:45;7.80;99.90
50586;DHT22;36542;51.700;8.846;2023-04-28T01:23:12;7.80;99.90
50586;DHT22;36542;51.700;8.846;2023-04-28T01:25:38;7.70;99.90
50586;DHT22;36542;51.700;8.846;2023-04-28T01:28:03;7.70;99.90
50586;DHT22;36542;51.700;8.846;2023-04-28T01:30:29;7.70;99.90
50586;DHT22;36542;51.700;8.846;2023-04-28T01:32:54;7.80;99.90
50586;DHT22;36542;51.700;8.846;2023-04-28T01:35:20;7.80;99.90
50586;DHT22;36542;51.700;8.846;2023-04-28T01:37:46;7.80;99.90
50586;DHT22;36542;51.700;8.846;2023-04-28T01:40:12;7.80;99.90
50586;DHT22;36542;51.700;8.846;2023-04-28T01:42:37;7.80;99.90
50586;DHT22;36542;51.700;8.846;2023-04-28T01:45:03;7.80;99.90
50586;DHT22;36542;51.700;8.846;2023-04-28T01:47:30;7.80;99.90
50586;DHT22;36542;51.700;8.846;2023-04-28T01:49:55;7.80;99.90
50586;DHT22;36542;51.700;8.846;2023-04-28T01:52:21;7.90;99.90
50586;DHT22;36542;51.700;8.846;2023-04-28T01:54:49;7.80;99.90
50586;DHT22;36542;51.700;8.846;2023-04-28T01:57:14;7.80;99.90
50586;DHT22;36542;51.700;8.846;2023-04-28T01:59:40;7.90;99.90
50586;DHT22;36542;51.700;8.846;2023-04-28T02:02:06;7.80;99.90
50586;DHT22;36542;51.700;8.846;2023-04-28T02:04:31;7.90;99.90
50586;DHT22;36542;51.700;8.846;2023-04-28T02:06:56;7.90;99.90
50586;DHT22;36542;51.700;8.846;2023-04-28T02:09:23;7.90;99.90
50586;DHT22;36542;51.700;8.846;2023-04-28T02:11:48;7.80;99.90
50586;DHT22;36542;51.700;8.846;2023-04-28T02:14:14;7.80;99.90
50586;DHT22;36542;51.700;8.846;2023-04-28T02:16:39;7.80;99.90
50586;DHT22;36542;51.700;8.846;2023-04-28T02:19:05;7.80;99.90
50586;DHT22;36542;51.700;8.846;2023-04-28T02:21:30;7.80;99.90
50586;DHT22;36542;51.700;8.846;2023-04-28T02:23:57;7.90;99.90
50586;DHT22;36542;51.700;8.846;2023-04-28T02:26:22;7.90;99.90
50586;DHT22;36542;51.700;8.846;2023-04-28T02:28:48;7.90;99.90
50586;DHT22;36542;51.700;8.846;2023-04-28T02:31:14;7.90;99.90
50586;DHT22;36542;51.700;8.846;2023-04-28T02:33:40;7.90;99.90
50586;DHT22;36542;51.700;8.846;2023-04-28T02:36:07;7.90;99.90
50586;DHT22;36542;51.700;8.846;2023-04-28T02:38:33;7.90;99.90
50586;DHT22;36542;51.700;8.846;2023-04-28T02:40:59;7.90;99.90
50586;DHT22;36542;51.700;8.846;2023-04-28T02:43:26;7.90;99.90
50586;DHT22;36542;51.700;8.846;2023-04-28T02:45:52;7.90;99.90
50586;DHT22;36542;51.700;8.846;2023-04-28T02:48:18;7.80;99.90
50586;DHT22;36542;51.700;8.846;2023-04-28T02:50:43;7.90;99.90
50586;DHT22;36542;51.700;8.846;2023-04-28T02:53:11;7.90;99.90
50586;DHT22;36542;51.700;8.846;2023-04-28T02:55:36;7.80;99.90
50586;DHT22;36542;51.700;8.846;2023-04-28T02:58:02;7.90;99.90
50586;DHT22;36542;51.700;8.846;2023-04-28T03:00:27;7.90;99.90
50586;DHT22;36542;51.700;8.846;2023-04-28T03:02:53;7.90;99.90
50586;DHT22;36542;51.700;8.846;2023-04-28T03:05:19;7.80;99.90
50586;DHT22;36542;51.700;8.846;2023-04-28T03:07:44;7.90;99.90
50586;DHT22;36542;51.700;8.846;2023-04-28T03:10:10;7.80;99.90
50586;DHT22;36542;51.700;8.846;2023-04-28T03:12:35;7.80;99.90
50586;DHT22;36542;51.700;8.846;2023-04-28T03:15:01;7.80;99.90
50586;DHT22;36542;51.700;8.846;2023-04-28T03:17:27;7.90;99.90
50586;DHT22;36542;51.700;8.846;2023-04-28T03:19:52;7.90;99.90
50586;DHT22;36542;51.700;8.846;2023-04-28T03:22:18;7.80;99.90
50586;DHT22;36542;51.700;8.846;2023-04-28T03:24:43;7.90;99.90
50586;DHT22;36542;51.700;8.846;2023-04-28T03:27:09;7.90;99.90
50586;DHT22;36542;51.700;8.846;2023-04-28T03:29:34;7.80;99.90
50586;DHT22;36542;51.700;8.846;2023-04-28T03:32:00;7.80;99.90
50586;DHT22;36542;51.700;8.846;2023-04-28T03:34:25;7.90;99.90
50586;DHT22;36542;51.700;8.846;2023-04-28T03:36:51;7.90;99.90
50586;DHT22;36542;51.700;8.846;2023-04-28T03:39:16;7.90;99.90
50586;DHT22;36542;51.700;8.846;2023-04-28T03:41:42;7.90;99.90
50586;DHT22;36542;51.700;8.846;2023-04-28T03:44:07;7.90;99.90
50586;DHT22;36542;51.700;8.846;2023-04-28T03:46:33;7.90;99.90
50586;DHT22;36542;51.700;8.846;2023-04-28T03:48:59;7.80;99.90
50586;DHT22;36542;51.700;8.846;2023-04-28T03:51:27;7.90;99.90
50586;DHT22;36542;51.700;8.846;2023-04-28T03:53:53;7.90;99.90
50586;DHT22;36542;51.700;8.846;2023-04-28T03:56:18;7.80;99.90
50586;DHT22;36542;51.700;8.846;2023-04-28T03:58:45;7.90;99.90
50586;DHT22;36542;51.700;8.846;2023-04-28T04:01:10;7.90;99.90
50586;DHT22;36542;51.700;8.846;2023-04-28T04:03:36;7.90;99.90
50586;DHT22;36542;51.700;8.846;2023-04-28T04:06:01;7.90;99.90
50586;DHT22;36542;51.700;8.846;2023-04-28T04:08:27;7.90;99.90
50586;DHT22;36542;51.700;8.846;2023-04-28T04:10:52;7.90;99.90
50586;DHT22;36542;51.700;8.846;2023-04-28T04:13:19;7.90;99.90
50586;DHT22;36542;51.700;8.846;2023-04-28T04:15:45;7.90;99.90
50586;DHT22;36542;51.700;8.846;2023-04-28T04:18:10;7.90;99.90
50586;DHT22;36542;51.700;8.846;2023-04-28T04:20:36;8.00;99.90
50586;DHT22;36542;51.700;8.846;2023-04-28T04:23:02;8.00;99.90
50586;DHT22;36542;51.700;8.846;2023-04-28T04:25:28;7.90;99.90
50586;DHT22;36542;51.700;8.846;2023-04-28T04:27:53;8.00;99.90
50586;DHT22;36542;51.700;8.846;2023-04-28T04:30:19;8.00;99.90
50586;DHT22;36542;51.700;8.846;2023-04-28T04:32:44;8.00;99.90
50586;DHT22;36542;51.700;8.846;2023-04-28T04:35:10;8.00;99.90
50586;DHT22;36542;51.700;8.846;2023-04-28T04:37:36;7.90;99.90
50586;DHT22;36542;51.700;8.846;2023-04-28T04:40:01;7.80;99.90
50586;DHT22;36542;51.700;8.846;2023-04-28T04:42:27;7.70;99.90
50586;DHT22;36542;51.700;8.846;2023-04-28T04:44:53;7.60;99.90
50586;DHT22;36542;51.700;8.846;2023-04-28T04:47:18;7.50;99.90
50586;DHT22;36542;51.700;8.846;2023-04-28T04:49:44;7.50;99.90
50586;DHT22;36542;51.700;8.846;2023-04-28T04:52:09;7.40;99.90
50586;DHT22;36542;51.700;8.846;2023-04-28T04:54:35;7.30;99.90
50586;DHT22;36542;51.700;8.846;2023-04-28T04:57:00;7.30;99.90
50586;DHT22;36542;51.700;8.846;2023-04-28T04:59:26;7.20;99.90
50586;DHT22;36542;51.700;8.846;2023-04-28T05:01:52;7.20;99.90
50586;DHT22;36542;51.700;8.846;2023-04-28T05:04:18;7.20;99.90
50586;DHT22;36542;51.700;8.846;2023-04-28T05:06:43;7.20;99.90
50586;DHT22;36542;51.700;8.846;2023-04-28T05:09:09;7.20;99.90
50586;DHT22;36542;51.700;8.846;2023-04-28T05:11:34;7.30;99.90
50586;DHT22;36542;51.700;8.846;2023-04-28T05:14:00;7.30;99.90
50586;DHT22;36542;51.700;8.846;2023-04-28T05:16:25;7.30;99.90
50586;DHT22;36542;51.700;8.846;2023-04-28T05:18:52;7.40;99.90
50586;DHT22;36542;51.700;8.846;2023-04-28T05:21:17;7.30;99.90
50586;DHT22;36542;51.700;8.846;2023-04-28T05:23:42;7.30;99.90
50586;DHT22;36542;51.700;8.846;2023-04-28T05:26:08;7.30;99.90
50586;DHT22;36542;51.700;8.846;2023-04-28T05:28:34;7.30;99.90
50586;DHT22;36542;51.700;8.846;2023-04-28T05:30:59;7.30;99.90
50586;DHT22;36542;51.700;8.846;2023-04-28T05:33:25;7.30;99.90
50586;DHT22;36542;51.700;8.846;2023-04-28T05:35:50;7.30;99.90
50586;DHT22;36542;51.700;8.846;2023-04-28T05:38:16;7.30;99.90
50586;DHT22;36542;51.700;8.846;2023-04-28T05:40:42;7.40;99.90
50586;DHT22;36542;51.700;8.846;2023-04-28T05:43:07;7.50;99.90
50586;DHT22;36542;51.700;8.846;2023-04-28T05:45:33;7.60;99.90
50586;DHT22;36542;51.700;8.846;2023-04-28T05:47:59;7.60;99.90
50586;DHT22;36542;51.700;8.846;2023-04-28T05:50:25;7.60;99.90
50586;DHT22;36542;51.700;8.846;2023-04-28T05:52:50;7.70;99.90
50586;DHT22;36542;51.700;8.846;2023-04-28T05:55:16;7.80;99.90
50586;DHT22;36542;51.700;8.846;2023-04-28T05:57:41;7.80;99.90
50586;DHT22;36542;51.700;8.846;2023-04-28T06:00:07;7.80;99.90
50586;DHT22;36542;51.700;8.846;2023-04-28T06:02:33;7.90;99.90
50586;DHT22;36542;51.700;8.846;2023-04-28T06:04:58;7.90;99.90
50586;DHT22;36542;51.700;8.846;2023-04-28T06:07:23;8.10;99.90
50586;DHT22;36542;51.700;8.846;2023-04-28T06:09:49;8.20;99.90
50586;DHT22;36542;51.700;8.846;2023-04-28T06:12:15;8.30;99.90
50586;DHT22;36542;51.700;8.846;2023-04-28T06:14:40;8.40;99.90
50586;DHT22;36542;51.700;8.846;2023-04-28T06:17:06;8.50;99.90
50586;DHT22;36542;51.700;8.846;2023-04-28T06:19:32;8.50;99.90
50586;DHT22;36542;51.700;8.846;2023-04-28T06:21:58;8.60;99.90
50586;DHT22;36542;51.700;8.846;2023-04-28T06:24:23;8.70;99.90
50586;DHT22;36542;51.700;8.846;2023-04-28T06:26:49;8.80;99.90
50586;DHT22;36542;51.700;8.846;2023-04-28T06:29:14;8.90;99.90
50586;DHT22;36542;51.700;8.846;2023-04-28T06:31:40;8.90;99.90
50586;DHT22;36542;51.700;8.846;2023-04-28T06:34:05;8.90;99.90
50586;DHT22;36542;51.700;8.846;2023-04-28T06:36:31;8.90;99.90
50586;DHT22;36542;51.700;8.846;2023-04-28T06:38:57;8.90;99.90
50586;DHT22;36542;51.700;8.846;2023-04-28T06:41:23;8.80;99.90
50586;DHT22;36542;51.700;8.846;2023-04-28T06:43:48;8.80;99.90
50586;DHT22;36542;51.700;8.846;2023-04-28T06:46:15;8.70;99.90
50586;DHT22;36542;51.700;8.846;2023-04-28T06:48:40;8.70;99.90
50586;DHT22;36542;51.700;8.846;2023-04-28T06:51:06;8.60;99.90
50586;DHT22;36542;51.700;8.846;2023-04-28T06:53:31;8.60;99.90
50586;DHT22;36542;51.700;8.846;2023-04-28T06:55:57;8.60;99.90
50586;DHT22;36542;51.700;8.846;2023-04-28T06:58:23;8.60;99.90
50586;DHT22;36542;51.700;8.846;2023-04-28T07:00:49;8.70;99.90
50586;DHT22;36542;51.700;8.846;2023-04-28T07:03:14;8.80;99.90
50586;DHT22;36542;51.700;8.846;2023-04-28T07:05:40;9.00;99.90
50586;DHT22;36542;51.700;8.846;2023-04-28T07:08:06;9.20;99.90
50586;DHT22;36542;51.700;8.846;2023-04-28T07:10:31;9.40;99.90
50586;DHT22;36542;51.700;8.846;2023-04-28T07:12:57;9.60;99.90
50586;DHT22;36542;51.700;8.846;2023-04-28T07:15:23;9.70;99.90
50586;DHT22;36542;51.700;8.846;2023-04-28T07:17:49;9.80;99.90
50586;DHT22;36542;51.700;8.846;2023-04-28T07:20:14;9.90;99.90
50586;DHT22;36542;51.700;8.846;2023-04-28T07:22:40;9.90;99.90
50586;DHT22;36542;51.700;8.846;2023-04-28T07:25:05;9.90;99.90
50586;DHT22;36542;51.700;8.846;2023-04-28T07:27:31;10.00;99.90
50586;DHT22;36542;51.700;8.846;2023-04-28T07:29:57;10.00;99.90
50586;DHT22;36542;51.700;8.846;2023-04-28T07:32:22;9.90;99.90
50586;DHT22;36542;51.700;8.846;2023-04-28T07:34:48;10.00;99.90
50586;DHT22;36542;51.700;8.846;2023-04-28T07:37:14;10.10;99.90
50586;DHT22;36542;51.700;8.846;2023-04-28T07:39:39;10.30;99.90
50586;DHT22;36542;51.700;8.846;2023-04-28T07:42:06;10.40;99.90
50586;DHT22;36542;51.700;8.846;2023-04-28T07:44:31;10.60;99.90
50586;DHT22;36542;51.700;8.846;2023-04-28T07:46:58;10.70;99.90
50586;DHT22;36542;51.700;8.846;2023-04-28T07:49:25;10.80;99.90
50586;DHT22;36542;51.700;8.846;2023-04-28T07:51:50;10.80;99.90
50586;DHT22;36542;51.700;8.846;2023-04-28T07:54:19;11.10;99.90
50586;DHT22;36542;51.700;8.846;2023-04-28T07:56:44;11.40;99.90
50586;DHT22;36542;51.700;8.846;2023-04-28T07:59:10;11.80;99.90
50586;DHT22;36542;51.700;8.846;2023-04-28T08:01:36;11.90;99.90
50586;DHT22;36542;51.700;8.846;2023-04-28T08:04:01;11.90;99.90
50586;DHT22;36542;51.700;8.846;2023-04-28T08:06:27;11.90;99.90
50586;DHT22;36542;51.700;8.846;2023-04-28T08:08:53;11.80;99.90
50586;DHT22;36542;51.700;8.846;2023-04-28T08:11:19;11.70;99.90
50586;DHT22;36542;51.700;8.846;2023-04-28T08:13:45;11.70;99.90
50586;DHT22;36542;51.700;8.846;2023-04-28T08:16:11;11.50;99.90
50586;DHT22;36542;51.700;8.846;2023-04-28T08:18:37;11.40;99.90
50586;DHT22;36542;51.700;8.846;2023-04-28T08:21:04;11.30;99.90
50586;DHT22;36542;51.700;8.846;2023-04-28T08:23:29;11.20;99.90
50586;DHT22;36542;51.700;8.846;2023-04-28T08:25:56;11.20;99.90
50586;DHT22;36542;51.700;8.846;2023-04-28T08:28:22;11.30;99.90
50586;DHT22;36542;51.700;8.846;2023-04-28T08:30:47;11.40;99.90
50586;DHT22;36542;51.700;8.846;2023-04-28T08:33:13;11.60;99.90
50586;DHT22;36542;51.700;8.846;2023-04-28T08:35:38;11.80;99.90
50586;DHT22;36542;51.700;8.846;2023-04-28T08:38:05;12.10;99.90
50586;DHT22;36542;51.700;8.846;2023-04-28T08:40:31;12.20;99.90
50586;DHT22;36542;51.700;8.846;2023-04-28T08:42:58;12.20;99.90
50586;DHT22;36542;51.700;8.846;2023-04-28T08:45:24;12.10;99.90
50586;DHT22;36542;51.700;8.846;2023-04-28T08:47:50;11.90;99.90
50586;DHT22;36542;51.700;8.846;2023-04-28T08:50:20;11.70;99.90
50586;DHT22;36542;51.700;8.846;2023-04-28T08:52:46;11.80;99.90
50586;DHT22;36542;51.700;8.846;2023-04-28T08:55:12;11.80;99.90
50586;DHT22;36542;51.700;8.846;2023-04-28T08:57:47;11.80;99.90
50586;DHT22;36542;51.700;8.846;2023-04-28T09:00:14;11.70;99.90
50586;DHT22;36542;51.700;8.846;2023-04-28T09:02:39;11.70;99.90
50586;DHT22;36542;51.700;8.846;2023-04-28T09:05:11;11.60;99.90
50586;DHT22;36542;51.700;8.846;2023-04-28T09:07:38;11.70;99.90
50586;DHT22;36542;51.700;8.846;2023-04-28T09:12:43;11.50;99.90
50586;DHT22;36542;51.700;8.846;2023-04-28T09:15:09;11.40;99.90
50586;DHT22;36542;51.700;8.846;2023-04-28T09:17:54;11.50;99.90
50586;DHT22;36542;51.700;8.846;2023-04-28T09:20:21;11.30;99.90
50586;DHT22;36542;51.700;8.846;2023-04-28T09:22:47;11.40;99.90
50586;DHT22;36542;51.700;8.846;2023-04-28T09:25:13;11.40;99.90
50586;DHT22;36542;51.700;8.846;2023-04-28T09:27:39;11.50;99.90
50586;DHT22;36542;51.700;8.846;2023-04-28T09:30:05;11.50;99.90
50586;DHT22;36542;51.700;8.846;2023-04-28T09:32:31;11.20;99.90
50586;DHT22;36542;51.700;8.846;2023-04-28T09:34:56;11.20;99.90
50586;DHT22;36542;51.700;8.846;2023-04-28T09:37:24;11.10;99.90
50586;DHT22;36542;51.700;8.846;2023-04-28T09:39:51;11.10;99.90
50586;DHT22;36542;51.700;8.846;2023-04-28T09:44:56;11.40;99.90
50586;DHT22;36542;51.700;8.846;2023-04-28T09:47:22;11.70;99.90
50586;DHT22;36542;51.700;8.846;2023-04-28T09:49:54;12.00;99.90
50586;DHT22;36542;51.700;8.846;2023-04-28T09:52:21;12.30;99.90
50586;DHT22;36542;51.700;8.846;2023-04-28T09:54:49;12.10;99.90
50586;DHT22;36542;51.700;8.846;2023-04-28T09:57:15;12.10;99.90
50586;DHT22;36542;51.700;8.846;2023-04-28T09:59:49;12.30;99.90
50586;DHT22;36542;51.700;8.846;2023-04-28T10:02:16;12.50;99.90
50586;DHT22;36542;51.700;8.846;2023-04-28T10:04:43;12.80;99.90
50586;DHT22;36542;51.700;8.846;2023-04-28T10:07:10;12.80;99.90
50586;DHT22;36542;51.700;8.846;2023-04-28T10:09:37;12.80;99.90
50586;DHT22;36542;51.700;8.846;2023-04-28T10:12:03;12.80;99.90
50586;DHT22;36542;51.700;8.846;2023-04-28T10:14:30;12.60;99.90
50586;DHT22;36542;51.700;8.846;2023-04-28T10:16:57;12.50;99.90
50586;DHT22;36542;51.700;8.846;2023-04-28T10:19:23;12.50;99.90
50586;DHT22;36542;51.700;8.846;2023-04-28T10:22:07;12.30;99.90
50586;DHT22;36542;51.700;8.846;2023-04-28T10:25:35;12.30;99.90
50586;DHT22;36542;51.700;8.846;2023-04-28T10:27:40;12.20;99.90
50586;DHT22;36542;51.700;8.846;2023-04-28T10:30:15;12.10;99.90
50586;DHT22;36542;51.700;8.846;2023-04-28T10:32:41;12.10;99.90
50586;DHT22;36542;51.700;8.846;2023-04-28T10:38:12;12.30;99.90
50586;DHT22;36542;51.700;8.846;2023-04-28T10:40:40;12.30;99.90
50586;DHT22;36542;51.700;8.846;2023-04-28T10:48:19;12.60;99.90
50586;DHT22;36542;51.700;8.846;2023-04-28T10:56:21;12.90;99.90
50586;DHT22;36542;51.700;8.846;2023-04-28T10:58:53;13.10;99.90
50586;DHT22;36542;51.700;8.846;2023-04-28T11:03:50;14.00;99.90
50586;DHT22;36542;51.700;8.846;2023-04-28T11:06:19;14.10;99.90
50586;DHT22;36542;51.700;8.846;2023-04-28T11:08:51;14.00;99.90
50586;DHT22;36542;51.700;8.846;2023-04-28T11:13:51;14.50;99.90
50586;DHT22;36542;51.700;8.846;2023-04-28T11:16:18;15.10;99.90
50586;DHT22;36542;51.700;8.846;2023-04-28T11:18:53;15.40;99.90
50586;DHT22;36542;51.700;8.846;2023-04-28T11:21:20;15.60;99.90
50586;DHT22;36542;51.700;8.846;2023-04-28T11:23:46;15.40;99.90
50586;DHT22;36542;51.700;8.846;2023-04-28T11:26:12;15.00;99.90
50586;DHT22;36542;51.700;8.846;2023-04-28T11:28:48;14.80;99.90
50586;DHT22;36542;51.700;8.846;2023-04-28T11:31:15;14.60;99.90
50586;DHT22;36542;51.700;8.846;2023-04-28T11:33:50;14.60;99.90
50586;DHT22;36542;51.700;8.846;2023-04-28T11:36:27;14.60;99.90
50586;DHT22;36542;51.700;8.846;2023-04-28T11:38:53;14.60;99.90
50586;DHT22;36542;51.700;8.846;2023-04-28T11:41:20;14.90;99.90
50586;DHT22;36542;51.700;8.846;2023-04-28T11:43:46;15.10;99.90
50586;DHT22;36542;51.700;8.846;2023-04-28T11:46:23;15.30;99.90
50586;DHT22;36542;51.700;8.846;2023-04-28T11:48:59;15.40;99.90
50586;DHT22;36542;51.700;8.846;2023-04-28T11:51:36;15.60;99.90
50586;DHT22;36542;51.700;8.846;2023-04-28T11:54:06;15.80;99.90
50586;DHT22;36542;51.700;8.846;2023-04-28T11:56:38;16.00;99.90
50586;DHT22;36542;51.700;8.846;2023-04-28T11:59:08;16.20;99.90
50586;DHT22;36542;51.700;8.846;2023-04-28T12:01:50;16.50;99.90
50586;DHT22;36542;51.700;8.846;2023-04-28T12:07:07;17.10;99.90
50586;DHT22;36542;51.700;8.846;2023-04-28T12:09:35;17.50;99.90
50586;DHT22;36542;51.700;8.846;2023-04-28T12:12:03;17.50;99.90
50586;DHT22;36542;51.700;8.846;2023-04-28T12:14:29;17.30;99.90
50586;DHT22;36542;51.700;8.846;2023-04-28T12:16:57;17.00;99.90
50586;DHT22;36542;51.700;8.846;2023-04-28T12:19:23;17.00;99.90
50586;DHT22;36542;51.700;8.846;2023-04-28T12:22:07;16.90;99.90
50586;DHT22;36542;51.700;8.846;2023-04-28T12:24:32;17.00;99.90
50586;DHT22;36542;51.700;8.846;2023-04-28T12:27:19;17.10;99.90
50586;DHT22;36542;51.700;8.846;2023-04-28T12:29:49;16.60;99.90
50586;DHT22;36542;51.700;8.846;2023-04-28T12:32:15;16.60;99.90
50586;DHT22;36542;51.700;8.846;2023-04-28T12:34:44;16.70;99.90
50586;DHT22;36542;51.700;8.846;2023-04-28T12:37:09;17.00;99.90
50586;DHT22;36542;51.700;8.846;2023-04-28T12:39:38;16.90;99.90
50586;DHT22;36542;51.700;8.846;2023-04-28T12:42:04;16.70;99.90
50586;DHT22;36542;51.700;8.846;2023-04-28T12:44:37;16.90;99.90
50586;DHT22;36542;51.700;8.846;2023-04-28T12:47:07;17.00;99.90
50586;DHT22;36542;51.700;8.846;2023-04-28T12:49:34;17.00;99.90
50586;DHT22;36542;51.700;8.846;2023-04-28T12:52:00;16.90;99.90
50586;DHT22;36542;51.700;8.846;2023-04-28T12:54:26;17.00;99.90
50586;DHT22;36542;51.700;8.846;2023-04-28T12:56:52;17.20;99.90
50586;DHT22;36542;51.700;8.846;2023-04-28T12:59:19;17.20;99.90
50586;DHT22;36542;51.700;8.846;2023-04-28T13:01:45;17.40;99.90
50586;DHT22;36542;51.700;8.846;2023-04-28T13:04:10;17.10;99.90
50586;DHT22;36542;51.700;8.846;2023-04-28T13:06:37;16.90;99.90
50586;DHT22;36542;51.700;8.846;2023-04-28T13:09:03;16.30;99.90
50586;DHT22;36542;51.700;8.846;2023-04-28T13:11:28;16.20;99.90
50586;DHT22;36542;51.700;8.846;2023-04-28T13:13:54;15.90;99.90
50586;DHT22;36542;51.700;8.846;2023-04-28T13:16:21;15.80;99.90
50586;DHT22;36542;51.700;8.846;2023-04-28T13:18:49;15.60;99.90
50586;DHT22;36542;51.700;8.846;2023-04-28T13:21:14;15.40;99.90
50586;DHT22;36542;51.700;8.846;2023-04-28T13:23:40;15.40;99.90
50586;DHT22;36542;51.700;8.846;2023-04-28T13:26:07;15.30;99.90
50586;DHT22;36542;51.700;8.846;2023-04-28T13:28:32;15.20;99.90
50586;DHT22;36542;51.700;8.846;2023-04-28T13:30:58;15.20;99.90
50586;DHT22;36542;51.700;8.846;2023-04-28T13:33:23;15.20;99.90
50586;DHT22;36542;51.700;8.846;2023-04-28T13:35:58;15.20;99.90
50586;DHT22;36542;51.700;8.846;2023-04-28T13:38:24;15.30;99.90
50586;DHT22;36542;51.700;8.846;2023-04-28T13:40:51;15.30;99.90
50586;DHT22;36542;51.700;8.846;2023-04-28T13:43:16;15.10;99.90
50586;DHT22;36542;51.700;8.846;2023-04-28T13:45:42;15.10;99.90
50586;DHT22;36542;51.700;8.846;2023-04-28T13:48:07;15.20;99.90
50586;DHT22;36542;51.700;8.846;2023-04-28T13:50:33;15.00;99.90
50586;DHT22;36542;51.700;8.846;2023-04-28T13:52:58;15.10;99.90
50586;DHT22;36542;51.700;8.846;2023-04-28T13:55:24;15.20;99.90
50586;DHT22;36542;51.700;8.846;2023-04-28T13:57:53;15.10;99.90
50586;DHT22;36542;51.700;8.846;2023-04-28T14:00:19;14.80;99.90
50586;DHT22;36542;51.700;8.846;2023-04-28T14:02:44;14.70;99.90
50586;DHT22;36542;51.700;8.846;2023-04-28T14:05:10;14.50;99.90
50586;DHT22;36542;51.700;8.846;2023-04-28T14:07:36;14.50;99.90
50586;DHT22;36542;51.700;8.846;2023-04-28T14:10:03;14.70;99.90
50586;DHT22;36542;51.700;8.846;2023-04-28T14:12:29;14.80;99.90
50586;DHT22;36542;51.700;8.846;2023-04-28T14:14:55;14.90;99.90
50586;DHT22;36542;51.700;8.846;2023-04-28T14:17:21;15.00;99.90
50586;DHT22;36542;51.700;8.846;2023-04-28T14:19:47;14.80;99.90
50586;DHT22;36542;51.700;8.846;2023-04-28T14:22:12;14.80;99.90
50586;DHT22;36542;51.700;8.846;2023-04-28T14:24:38;14.80;99.90
50586;DHT22;36542;51.700;8.846;2023-04-28T14:27:03;14.70;99.90
50586;DHT22;36542;51.700;8.846;2023-04-28T14:29:29;14.60;99.90
50586;DHT22;36542;51.700;8.846;2023-04-28T14:31:54;14.30;99.90
50586;DHT22;36542;51.700;8.846;2023-04-28T14:34:20;14.10;99.90
50586;DHT22;36542;51.700;8.846;2023-04-28T14:36:45;13.90;99.90
50586;DHT22;36542;51.700;8.846;2023-04-28T14:39:12;13.80;99.90
50586;DHT22;36542;51.700;8.846;2023-04-28T14:41:38;13.70;99.90
50586;DHT22;36542;51.700;8.846;2023-04-28T14:44:03;13.70;99.90
50586;DHT22;36542;51.700;8.846;2023-04-28T14:46:29;13.50;99.90
50586;DHT22;36542;51.700;8.846;2023-04-28T14:48:55;13.40;99.90
50586;DHT22;36542;51.700;8.846;2023-04-28T14:51:22;13.30;99.90
50586;DHT22;36542;51.700;8.846;2023-04-28T14:53:48;13.20;99.90
50586;DHT22;36542;51.700;8.846;2023-04-28T14:56:14;13.10;99.90
50586;DHT22;36542;51.700;8.846;2023-04-28T14:58:40;13.10;99.90
50586;DHT22;36542;51.700;8.846;2023-04-28T15:01:06;13.10;99.90
50586;DHT22;36542;51.700;8.846;2023-04-28T15:03:32;13.00;99.90
50586;DHT22;36542;51.700;8.846;2023-04-28T15:05:57;13.00;99.90
50586;DHT22;36542;51.700;8.846;2023-04-28T15:08:23;13.00;99.90
50586;DHT22;36542;51.700;8.846;2023-04-28T15:10:48;12.90;99.90
50586;DHT22;36542;51.700;8.846;2023-04-28T15:13:14;13.00;99.90
50586;DHT22;36542;51.700;8.846;2023-04-28T15:15:39;13.10;99.90
50586;DHT22;36542;51.700;8.846;2023-04-28T15:18:05;13.10;99.90
50586;DHT22;36542;51.700;8.846;2023-04-28T15:20:31;13.10;99.90
50586;DHT22;36542;51.700;8.846;2023-04-28T15:22:58;13.20;99.90
50586;DHT22;36542;51.700;8.846;2023-04-28T15:25:24;13.70;99.90
50586;DHT22;36542;51.700;8.846;2023-04-28T15:27:50;14.20;99.90
50586;DHT22;36542;51.700;8.846;2023-04-28T15:30:16;14.90;99.90
50586;DHT22;36542;51.700;8.846;2023-04-28T15:32:42;15.50;99.90
50586;DHT22;36542;51.700;8.846;2023-04-28T15:35:08;15.60;99.90
50586;DHT22;36542;51.700;8.846;2023-04-28T15:37:38;15.80;99.90
50586;DHT22;36542;51.700;8.846;2023-04-28T15:40:07;15.80;99.90
50586;DHT22;36542;51.700;8.846;2023-04-28T15:42:33;16.00;99.90
50586;DHT22;36542;51.700;8.846;2023-04-28T15:44:59;16.10;99.90
50586;DHT22;36542;51.700;8.846;2023-04-28T15:47:26;16.20;99.90
50586;DHT22;36542;51.700;8.846;2023-04-28T15:49:53;16.10;99.90
50586;DHT22;36542;51.700;8.846;2023-04-28T15:52:19;15.90;99.90
50586;DHT22;36542;51.700;8.846;2023-04-28T15:54:44;15.90;99.90
50586;DHT22;36542;51.700;8.846;2023-04-28T15:57:10;15.90;99.90
50586;DHT22;36542;51.700;8.846;2023-04-28T15:59:36;15.80;99.90